sensor_id;sensor_type;location;lat;lon;timestamp;pressure;altitude;pressure_sealevel;temperature;humidity
66857;BME280;53766;50.280;19.160;2024-03-25T00:01:07;97056.88;;;18.03;50.99
66857;BME280;53766;50.280;19.160;2024-03-25T00:03:39;97059.53;;;18.03;50.95
66857;BME280;53766;50.280;19.160;2024-03-25T00:06:06;97061.38;;;18.03;50.96
66857;BME280;53766;50.280;19.160;2024-03-25T00:08:32;97055.25;;;18.02;50.97
66857;BME280;53766;50.280;19.160;2024-03-25T00:10:59;97055.25;;;18.02;50.79
66857;BME280;53766;50.280;19.160;2024-03-25T00:13:25;97057.91;;;18.02;50.92
66857;BME280;53766;50.280;19.160;2024-03-25T00:15:52;97060.56;;;18.02;51.01
66857;BME280;53766;50.280;19.160;2024-03-25T00:18:18;97042.97;;;18.01;51.05
66857;BME280;53766;50.280;19.160;2024-03-25T00:20:45;97051.22;;;18.00;50.98
66857;BME280;53766;50.280;19.160;2024-03-25T00:23:12;97057.34;;;18.00;50.90
66857;BME280;53766;50.280;19.160;2024-03-25T00:25:39;97060.84;;;18.01;51.05
66857;BME280;53766;50.280;19.160;2024-03-25T00:28:05;97057.34;;;18.00;50.91
66857;BME280;53766;50.280;19.160;2024-03-25T00:30:32;97056.53;;;18.00;51.03
66857;BME280;53766;50.280;19.160;2024-03-25T00:32:58;97045.88;;;18.00;51.03
66857;BME280;53766;50.280;19.160;2024-03-25T00:35:25;97055.72;;;17.99;50.96
66857;BME280;53766;50.280;19.160;2024-03-25T00:37:52;97051.44;;;17.98;50.98
66857;BME280;53766;50.280;19.160;2024-03-25T00:40:18;97055.72;;;17.99;50.99
66857;BME280;53766;50.280;19.160;2024-03-25T00:42:46;97046.94;;;17.99;50.86
66857;BME280;53766;50.280;19.160;2024-03-25T00:45:14;97042.41;;;17.99;50.98
66857;BME280;53766;50.280;19.160;2024-03-25T00:47:40;97041.59;;;17.99;50.92
66857;BME280;53766;50.280;19.160;2024-03-25T00:50:07;97038.13;;;17.98;50.89
66857;BME280;53766;50.280;19.160;2024-03-25T00:52:34;97037.09;;;17.99;51.02
66857;BME280;53766;50.280;19.160;2024-03-25T00:55:01;97036.50;;;17.97;50.90
66857;BME280;53766;50.280;19.160;2024-03-25T00:57:27;97031.19;;;17.97;50.84
66857;BME280;53766;50.280;19.160;2024-03-25T00:59:56;97038.94;;;17.99;50.91
66857;BME280;53766;50.280;19.160;2024-03-25T01:02:22;97035.44;;;17.98;50.79
66857;BME280;53766;50.280;19.160;2024-03-25T01:04:49;97037.31;;;17.98;50.90
66857;BME280;53766;50.280;19.160;2024-03-25T01:07:15;97033.84;;;17.97;51.01
66857;BME280;53766;50.280;19.160;2024-03-25T01:09:42;97039.97;;;17.98;50.87
66857;BME280;53766;50.280;19.160;2024-03-25T01:12:08;97033.84;;;17.97;50.90
66857;BME280;53766;50.280;19.160;2024-03-25T01:14:35;97030.38;;;17.97;50.90
66857;BME280;53766;50.280;19.160;2024-03-25T01:17:02;97029.53;;;17.96;50.92
66857;BME280;53766;50.280;19.160;2024-03-25T01:19:29;97030.59;;;17.95;50.99
66857;BME280;53766;50.280;19.160;2024-03-25T01:21:56;97027.94;;;17.95;50.97
66857;BME280;53766;50.280;19.160;2024-03-25T01:24:22;97032.47;;;17.95;50.81
66857;BME280;53766;50.280;19.160;2024-03-25T01:26:48;97027.94;;;17.95;50.89
66857;BME280;53766;50.280;19.160;2024-03-25T01:29:15;97030.59;;;17.95;50.85
66857;BME280;53766;50.280;19.160;2024-03-25T01:31:42;97032.47;;;17.95;50.86
66857;BME280;53766;50.280;19.160;2024-03-25T01:34:09;97027.94;;;17.95;50.88
66857;BME280;53766;50.280;19.160;2024-03-25T01:36:35;97026.31;;;17.94;50.88
66857;BME280;53766;50.280;19.160;2024-03-25T01:39:02;97025.50;;;17.94;50.93
66857;BME280;53766;50.280;19.160;2024-03-25T01:41:30;97021.22;;;17.93;50.83
66857;BME280;53766;50.280;19.160;2024-03-25T01:43:57;97024.69;;;17.93;50.90
66857;BME280;53766;50.280;19.160;2024-03-25T01:46:24;97019.38;;;17.93;50.89
66857;BME280;53766;50.280;19.160;2024-03-25T01:48:51;97012.44;;;17.92;50.82
66857;BME280;53766;50.280;19.160;2024-03-25T01:51:21;97016.72;;;17.93;50.76
66857;BME280;53766;50.280;19.160;2024-03-25T01:53:52;97012.44;;;17.92;50.80
66857;BME280;53766;50.280;19.160;2024-03-25T01:56:18;97009.78;;;17.92;50.87
66857;BME280;53766;50.280;19.160;2024-03-25T01:58:46;97022.25;;;17.92;50.75
66857;BME280;53766;50.280;19.160;2024-03-25T02:01:13;97022.25;;;17.92;50.77
66857;BME280;53766;50.280;19.160;2024-03-25T02:03:44;97021.47;;;17.91;50.92
66857;BME280;53766;50.280;19.160;2024-03-25T02:06:15;97010.81;;;17.91;50.86
66857;BME280;53766;50.280;19.160;2024-03-25T02:08:44;97015.31;;;17.91;50.79
66857;BME280;53766;50.280;19.160;2024-03-25T02:11:10;97011.88;;;17.90;50.87
66857;BME280;53766;50.280;19.160;2024-03-25T02:13:39;97014.53;;;17.90;50.72
66857;BME280;53766;50.280;19.160;2024-03-25T02:16:06;97011.88;;;17.90;50.81
66857;BME280;53766;50.280;19.160;2024-03-25T02:18:33;97013.69;;;17.89;50.80
66857;BME280;53766;50.280;19.160;2024-03-25T02:20:59;97015.56;;;17.89;50.93
66857;BME280;53766;50.280;19.160;2024-03-25T02:23:27;97018.22;;;17.89;50.86
66857;BME280;53766;50.280;19.160;2024-03-25T02:25:53;97012.91;;;17.89;50.82
66857;BME280;53766;50.280;19.160;2024-03-25T02:28:21;97019.84;;;17.90;50.84
66857;BME280;53766;50.280;19.160;2024-03-25T02:30:47;97026.22;;;17.89;50.94
66857;BME280;53766;50.280;19.160;2024-03-25T02:33:14;97028.88;;;17.89;50.99
66857;BME280;53766;50.280;19.160;2024-03-25T02:35:41;97023.53;;;17.89;50.83
66857;BME280;53766;50.280;19.160;2024-03-25T02:38:09;97026.44;;;17.87;50.78
66857;BME280;53766;50.280;19.160;2024-03-25T02:40:36;97023.78;;;17.87;50.82
66857;BME280;53766;50.280;19.160;2024-03-25T02:43:04;97032.59;;;17.88;50.79
66857;BME280;53766;50.280;19.160;2024-03-25T02:45:30;97032.59;;;17.88;50.77
66857;BME280;53766;50.280;19.160;2024-03-25T02:47:57;97032.81;;;17.86;50.85
66857;BME280;53766;50.280;19.160;2024-03-25T02:50:23;97031.75;;;17.87;50.79
66857;BME280;53766;50.280;19.160;2024-03-25T02:52:50;97028.53;;;17.85;50.88
66857;BME280;53766;50.280;19.160;2024-03-25T02:55:16;97032.03;;;17.86;50.87
66857;BME280;53766;50.280;19.160;2024-03-25T02:57:43;97033.84;;;17.85;50.93
66857;BME280;53766;50.280;19.160;2024-03-25T03:00:09;97025.06;;;17.85;50.76
66857;BME280;53766;50.280;19.160;2024-03-25T03:02:36;97029.34;;;17.86;50.90
66857;BME280;53766;50.280;19.160;2024-03-25T03:05:03;97029.34;;;17.86;50.73
66857;BME280;53766;50.280;19.160;2024-03-25T03:07:30;97032.03;;;17.86;50.74
66857;BME280;53766;50.280;19.160;2024-03-25T03:09:56;97025.06;;;17.85;50.79
66857;BME280;53766;50.280;19.160;2024-03-25T03:12:23;97026.69;;;17.86;50.86
66857;BME280;53766;50.280;19.160;2024-03-25T03:14:50;97026.91;;;17.84;50.78
66857;BME280;53766;50.280;19.160;2024-03-25T03:17:16;97027.72;;;17.85;50.79
66857;BME280;53766;50.280;19.160;2024-03-25T03:19:43;97027.72;;;17.85;50.86
66857;BME280;53766;50.280;19.160;2024-03-25T03:22:09;97028.78;;;17.84;50.88
66857;BME280;53766;50.280;19.160;2024-03-25T03:24:36;97029.59;;;17.84;50.89
66857;BME280;53766;50.280;19.160;2024-03-25T03:27:03;97026.13;;;17.84;50.88
66857;BME280;53766;50.280;19.160;2024-03-25T03:29:30;97035.13;;;17.83;50.84
66857;BME280;53766;50.280;19.160;2024-03-25T03:31:56;97027.13;;;17.83;50.93
66857;BME280;53766;50.280;19.160;2024-03-25T03:34:23;97021.81;;;17.83;50.88
66857;BME280;53766;50.280;19.160;2024-03-25T03:36:49;97025.31;;;17.83;50.74
66857;BME280;53766;50.280;19.160;2024-03-25T03:39:16;97019.16;;;17.83;50.84
66857;BME280;53766;50.280;19.160;2024-03-25T03:41:42;97029.00;;;17.82;50.73
66857;BME280;53766;50.280;19.160;2024-03-25T03:44:09;97025.53;;;17.82;50.90
66857;BME280;53766;50.280;19.160;2024-03-25T03:46:36;97030.88;;;17.82;50.77
66857;BME280;53766;50.280;19.160;2024-03-25T03:49:02;97028.19;;;17.82;50.83
66857;BME280;53766;50.280;19.160;2024-03-25T03:51:29;97017.53;;;17.82;50.86
66857;BME280;53766;50.280;19.160;2024-03-25T03:53:55;97025.53;;;17.82;50.78
66857;BME280;53766;50.280;19.160;2024-03-25T03:56:22;97028.19;;;17.82;50.80
66857;BME280;53766;50.280;19.160;2024-03-25T03:58:49;97021.22;;;17.81;50.83
66857;BME280;53766;50.280;19.160;2024-03-25T04:01:17;97026.53;;;17.81;50.80
66857;BME280;53766;50.280;19.160;2024-03-25T04:03:43;97026.53;;;17.81;50.78
66857;BME280;53766;50.280;19.160;2024-03-25T04:06:12;97036.38;;;17.80;50.81
66857;BME280;53766;50.280;19.160;2024-03-25T04:08:39;97032.91;;;17.80;50.84
66857;BME280;53766;50.280;19.160;2024-03-25T04:11:07;97031.84;;;17.81;50.78
66857;BME280;53766;50.280;19.160;2024-03-25T04:13:53;97028.63;;;17.79;50.81
66857;BME280;53766;50.280;19.160;2024-03-25T04:16:39;97031.06;;;17.80;50.80
66857;BME280;53766;50.280;19.160;2024-03-25T04:19:06;97033.94;;;17.79;50.87
66857;BME280;53766;50.280;19.160;2024-03-25T04:21:33;97029.44;;;17.79;50.70
66857;BME280;53766;50.280;19.160;2024-03-25T04:23:59;97033.13;;;17.78;50.59
66857;BME280;53766;50.280;19.160;2024-03-25T04:26:26;97033.13;;;17.78;50.64
66857;BME280;53766;50.280;19.160;2024-03-25T04:28:53;97030.47;;;17.78;50.91
66857;BME280;53766;50.280;19.160;2024-03-25T04:31:20;97031.28;;;17.79;50.82
66857;BME280;53766;50.280;19.160;2024-03-25T04:33:46;97031.28;;;17.79;50.73
66857;BME280;53766;50.280;19.160;2024-03-25T04:36:13;97038.47;;;17.78;50.81
66857;BME280;53766;50.280;19.160;2024-03-25T04:38:39;97039.53;;;17.77;50.63
66857;BME280;53766;50.280;19.160;2024-03-25T04:41:06;97030.72;;;17.77;50.68
66857;BME280;53766;50.280;19.160;2024-03-25T04:43:33;97036.88;;;17.77;50.78
66857;BME280;53766;50.280;19.160;2024-03-25T04:46:02;97038.69;;;17.77;50.87
66857;BME280;53766;50.280;19.160;2024-03-25T04:48:29;97033.13;;;17.78;50.61
66857;BME280;53766;50.280;19.160;2024-03-25T04:50:56;97036.03;;;17.77;50.61
66857;BME280;53766;50.280;19.160;2024-03-25T04:53:22;97043.00;;;17.78;50.71
66857;BME280;53766;50.280;19.160;2024-03-25T04:55:49;97044.59;;;17.79;50.74
66857;BME280;53766;50.280;19.160;2024-03-25T04:58:15;97041.34;;;17.77;50.76
66857;BME280;53766;50.280;19.160;2024-03-25T05:00:42;97043.00;;;17.78;50.69
66857;BME280;53766;50.280;19.160;2024-03-25T05:03:08;97043.00;;;17.78;50.65
66857;BME280;53766;50.280;19.160;2024-03-25T05:05:36;97043.00;;;17.78;50.99
66857;BME280;53766;50.280;19.160;2024-03-25T05:08:03;97041.34;;;17.77;51.14
66857;BME280;53766;50.280;19.160;2024-03-25T05:10:29;97050.97;;;17.78;51.29
66857;BME280;53766;50.280;19.160;2024-03-25T05:12:56;97052.84;;;17.77;51.76
66857;BME280;53766;50.280;19.160;2024-03-25T05:15:23;97052.59;;;17.79;51.82
66857;BME280;53766;50.280;19.160;2024-03-25T05:17:50;97054.44;;;17.78;51.82
66857;BME280;53766;50.280;19.160;2024-03-25T05:20:16;97055.25;;;17.79;51.86
66857;BME280;53766;50.280;19.160;2024-03-25T05:22:42;97058.97;;;17.78;51.79
66857;BME280;53766;50.280;19.160;2024-03-25T05:25:09;97058.16;;;17.77;51.82
66857;BME280;53766;50.280;19.160;2024-03-25T05:27:36;97065.09;;;17.78;52.04
66857;BME280;53766;50.280;19.160;2024-03-25T05:30:02;97058.97;;;17.78;52.00
66857;BME280;53766;50.280;19.160;2024-03-25T05:32:30;97058.97;;;17.78;52.12
66857;BME280;53766;50.280;19.160;2024-03-25T05:34:57;97058.16;;;17.77;52.10
66857;BME280;53766;50.280;19.160;2024-03-25T05:37:23;97059.78;;;17.78;51.95
66857;BME280;53766;50.280;19.160;2024-03-25T05:39:50;97065.91;;;17.79;52.06
66857;BME280;53766;50.280;19.160;2024-03-25T05:42:16;97064.28;;;17.78;52.02
66857;BME280;53766;50.280;19.160;2024-03-25T05:44:45;97064.28;;;17.78;52.30
66857;BME280;53766;50.280;19.160;2024-03-25T05:47:12;97068.56;;;17.79;52.32
66857;BME280;53766;50.280;19.160;2024-03-25T05:49:41;97067.53;;;17.80;52.31
66857;BME280;53766;50.280;19.160;2024-03-25T05:52:07;97071.22;;;17.79;52.17
66857;BME280;53766;50.280;19.160;2024-03-25T05:54:34;97068.34;;;17.80;52.24
66857;BME280;53766;50.280;19.160;2024-03-25T05:57:00;97072.88;;;17.80;52.21
66857;BME280;53766;50.280;19.160;2024-03-25T05:59:27;97074.72;;;17.79;52.14
66857;BME280;53766;50.280;19.160;2024-03-25T06:01:54;97073.66;;;17.80;52.17
66857;BME280;53766;50.280;19.160;2024-03-25T06:04:21;97076.56;;;17.79;52.26
66857;BME280;53766;50.280;19.160;2024-03-25T06:06:48;97073.88;;;17.79;52.30
66857;BME280;53766;50.280;19.160;2024-03-25T06:09:14;97076.56;;;17.79;52.38
66857;BME280;53766;50.280;19.160;2024-03-25T06:11:41;97078.19;;;17.80;52.52
66857;BME280;53766;50.280;19.160;2024-03-25T06:14:08;97084.31;;;17.80;52.50
66857;BME280;53766;50.280;19.160;2024-03-25T06:16:35;97083.50;;;17.80;52.36
66857;BME280;53766;50.280;19.160;2024-03-25T06:19:02;97085.13;;;17.81;52.39
66857;BME280;53766;50.280;19.160;2024-03-25T06:21:28;97090.44;;;17.81;52.58
66857;BME280;53766;50.280;19.160;2024-03-25T06:23:55;97089.66;;;17.80;52.58
66857;BME280;53766;50.280;19.160;2024-03-25T06:26:21;97085.13;;;17.81;52.41
66857;BME280;53766;50.280;19.160;2024-03-25T06:28:48;97094.16;;;17.80;52.58
66857;BME280;53766;50.280;19.160;2024-03-25T06:31:15;97091.50;;;17.80;52.39
66857;BME280;53766;50.280;19.160;2024-03-25T06:34:00;97087.78;;;17.81;52.56
66857;BME280;53766;50.280;19.160;2024-03-25T06:36:48;97094.16;;;17.80;52.43
66857;BME280;53766;50.280;19.160;2024-03-25T06:39:15;97086.97;;;17.80;52.62
66857;BME280;53766;50.280;19.160;2024-03-25T06:41:41;97094.97;;;17.80;52.68
66857;BME280;53766;50.280;19.160;2024-03-25T06:44:09;97101.09;;;17.81;52.52
66857;BME280;53766;50.280;19.160;2024-03-25T06:46:35;97100.28;;;17.80;52.61
66857;BME280;53766;50.280;19.160;2024-03-25T06:49:02;97101.09;;;17.81;52.51
66857;BME280;53766;50.280;19.160;2024-03-25T06:51:28;97100.28;;;17.80;52.48
66857;BME280;53766;50.280;19.160;2024-03-25T06:53:55;97100.28;;;17.80;52.47
66857;BME280;53766;50.280;19.160;2024-03-25T06:56:22;97100.53;;;17.79;52.58
66857;BME280;53766;50.280;19.160;2024-03-25T06:58:48;97102.16;;;17.80;52.54
66857;BME280;53766;50.280;19.160;2024-03-25T07:01:15;97108.50;;;17.79;52.57
66857;BME280;53766;50.280;19.160;2024-03-25T07:03:41;97113.84;;;17.79;52.60
66857;BME280;53766;50.280;19.160;2024-03-25T07:06:08;97113.84;;;17.79;52.52
66857;BME280;53766;50.280;19.160;2024-03-25T07:08:34;97110.94;;;17.80;52.48
66857;BME280;53766;50.280;19.160;2024-03-25T07:11:01;97118.75;;;17.82;52.43
66857;BME280;53766;50.280;19.160;2024-03-25T07:13:28;97117.06;;;17.81;52.48
66857;BME280;53766;50.280;19.160;2024-03-25T07:15:55;97117.69;;;17.83;52.35
66857;BME280;53766;50.280;19.160;2024-03-25T07:18:22;97111.34;;;17.84;52.33
66857;BME280;53766;50.280;19.160;2024-03-25T07:20:48;97118.28;;;17.85;52.20
66857;BME280;53766;50.280;19.160;2024-03-25T07:23:16;97119.31;;;17.84;52.25
66857;BME280;53766;50.280;19.160;2024-03-25T07:25:42;97125.22;;;17.86;52.28
66857;BME280;53766;50.280;19.160;2024-03-25T07:28:09;97129.50;;;17.87;52.22
66857;BME280;53766;50.280;19.160;2024-03-25T07:30:35;97128.47;;;17.88;52.19
66857;BME280;53766;50.280;19.160;2024-03-25T07:33:02;97122.31;;;17.87;52.16
66857;BME280;53766;50.280;19.160;2024-03-25T07:35:29;97132.16;;;17.87;52.21
66857;BME280;53766;50.280;19.160;2024-03-25T07:37:56;97132.16;;;17.87;52.31
66857;BME280;53766;50.280;19.160;2024-03-25T07:40:23;97138.56;;;17.86;52.20
66857;BME280;53766;50.280;19.160;2024-03-25T07:42:49;97135.06;;;17.85;52.24
66857;BME280;53766;50.280;19.160;2024-03-25T07:45:17;97141.22;;;17.86;52.14
66857;BME280;53766;50.280;19.160;2024-03-25T07:47:44;97142.00;;;17.86;52.23
66857;BME280;53766;50.280;19.160;2024-03-25T07:50:10;97144.69;;;17.86;52.14
66857;BME280;53766;50.280;19.160;2024-03-25T07:52:38;97147.56;;;17.85;52.29
66857;BME280;53766;50.280;19.160;2024-03-25T07:55:07;97151.88;;;17.86;52.11
66857;BME280;53766;50.280;19.160;2024-03-25T07:57:34;97148.63;;;17.84;52.22
66857;BME280;53766;50.280;19.160;2024-03-25T08:00:01;97153.94;;;17.84;52.25
66857;BME280;53766;50.280;19.160;2024-03-25T08:02:28;97148.63;;;17.84;52.20
66857;BME280;53766;50.280;19.160;2024-03-25T08:04:54;97164.59;;;17.84;52.23
66857;BME280;53766;50.280;19.160;2024-03-25T08:07:21;97161.69;;;17.85;52.03
66857;BME280;53766;50.280;19.160;2024-03-25T08:09:47;97164.59;;;17.84;52.09
66857;BME280;53766;50.280;19.160;2024-03-25T08:12:13;97165.41;;;17.84;52.12
66857;BME280;53766;50.280;19.160;2024-03-25T08:14:40;97162.97;;;17.83;52.12
66857;BME280;53766;50.280;19.160;2024-03-25T08:17:08;97169.13;;;17.83;52.09
66857;BME280;53766;50.280;19.160;2024-03-25T08:19:34;97176.28;;;17.83;52.07
66857;BME280;53766;50.280;19.160;2024-03-25T08:22:01;97175.25;;;17.84;51.96
66857;BME280;53766;50.280;19.160;2024-03-25T08:24:27;97183.25;;;17.84;51.98
66857;BME280;53766;50.280;19.160;2024-03-25T08:26:54;97179.78;;;17.83;52.12
66857;BME280;53766;50.280;19.160;2024-03-25T08:29:21;97174.44;;;17.83;52.04
66857;BME280;53766;50.280;19.160;2024-03-25T08:31:47;97182.66;;;17.82;51.99
66857;BME280;53766;50.280;19.160;2024-03-25T08:34:14;97181.59;;;17.83;51.93
66857;BME280;53766;50.280;19.160;2024-03-25T08:36:40;97190.44;;;17.83;51.93
66857;BME280;53766;50.280;19.160;2024-03-25T08:39:07;97190.66;;;17.82;51.92
66857;BME280;53766;50.280;19.160;2024-03-25T08:41:33;97190.66;;;17.82;52.08
66857;BME280;53766;50.280;19.160;2024-03-25T08:44:00;97189.59;;;17.83;51.96
66857;BME280;53766;50.280;19.160;2024-03-25T08:46:26;97190.44;;;17.83;51.88
66857;BME280;53766;50.280;19.160;2024-03-25T08:48:53;97189.59;;;17.83;51.84
66857;BME280;53766;50.280;19.160;2024-03-25T08:51:20;97200.25;;;17.83;51.88
66857;BME280;53766;50.280;19.160;2024-03-25T08:53:46;97203.50;;;17.85;51.75
66857;BME280;53766;50.280;19.160;2024-03-25T08:56:13;97205.13;;;17.86;51.70
66857;BME280;53766;50.280;19.160;2024-03-25T08:58:40;97208.38;;;17.88;51.74
66857;BME280;53766;50.280;19.160;2024-03-25T09:01:06;97205.72;;;17.88;51.77
66857;BME280;53766;50.280;19.160;2024-03-25T09:03:35;97213.72;;;17.88;51.63
66857;BME280;53766;50.280;19.160;2024-03-25T09:06:02;97203.06;;;17.88;51.65
66857;BME280;53766;50.280;19.160;2024-03-25T09:08:28;97203.06;;;17.88;51.75
66857;BME280;53766;50.280;19.160;2024-03-25T09:10:55;97202.00;;;17.89;51.72
66857;BME280;53766;50.280;19.160;2024-03-25T09:13:33;97208.97;;;17.90;51.66
66857;BME280;53766;50.280;19.160;2024-03-25T09:15:59;97203.16;;;17.93;51.61
66857;BME280;53766;50.280;19.160;2024-03-25T09:18:26;97205.03;;;17.93;51.42
66857;BME280;53766;50.280;19.160;2024-03-25T09:20:53;97205.03;;;17.93;51.64
66857;BME280;53766;50.280;19.160;2024-03-25T09:23:20;97202.09;;;17.94;51.50
66857;BME280;53766;50.280;19.160;2024-03-25T09:25:55;97196.78;;;17.94;51.51
66857;BME280;53766;50.280;19.160;2024-03-25T09:28:24;97204.56;;;17.96;51.46
66857;BME280;53766;50.280;19.160;2024-03-25T09:30:51;97203.75;;;17.95;51.55
66857;BME280;53766;50.280;19.160;2024-03-25T09:33:18;97206.63;;;17.94;51.37
66857;BME280;53766;50.280;19.160;2024-03-25T09:35:44;97206.63;;;17.94;51.56
66857;BME280;53766;50.280;19.160;2024-03-25T09:38:11;97214.63;;;17.94;51.42
66857;BME280;53766;50.280;19.160;2024-03-25T09:40:41;97202.94;;;17.95;51.50
66857;BME280;53766;50.280;19.160;2024-03-25T09:43:24;97199.22;;;17.96;51.42
66857;BME280;53766;50.280;19.160;2024-03-25T09:45:52;97198.41;;;17.95;51.29
66857;BME280;53766;50.280;19.160;2024-03-25T09:48:19;97194.69;;;17.96;51.35
66857;BME280;53766;50.280;19.160;2024-03-25T09:50:49;97191.81;;;17.98;51.28
66857;BME280;53766;50.280;19.160;2024-03-25T09:53:15;97185.47;;;17.99;51.29
66857;BME280;53766;50.280;19.160;2024-03-25T09:55:42;97191.38;;;18.01;51.25
66857;BME280;53766;50.280;19.160;2024-03-25T09:58:10;97191.38;;;18.01;51.25
66857;BME280;53766;50.280;19.160;2024-03-25T10:00:37;97198.53;;;18.00;51.25
66857;BME280;53766;50.280;19.160;2024-03-25T10:03:03;97193.78;;;18.02;51.16
66857;BME280;53766;50.280;19.160;2024-03-25T10:05:30;97202.03;;;18.01;51.16
66857;BME280;53766;50.280;19.160;2024-03-25T10:07:57;97197.94;;;17.98;51.22
66857;BME280;53766;50.280;19.160;2024-03-25T10:10:24;97208.59;;;17.98;51.19
66857;BME280;53766;50.280;19.160;2024-03-25T10:12:50;97214.75;;;17.99;51.29
66857;BME280;53766;50.280;19.160;2024-03-25T10:15:17;97221.13;;;17.98;51.23
66857;BME280;53766;50.280;19.160;2024-03-25T10:17:44;97222.97;;;17.97;51.29
66857;BME280;53766;50.280;19.160;2024-03-25T10:20:14;97226.66;;;17.96;51.25
66857;BME280;53766;50.280;19.160;2024-03-25T10:22:44;97227.50;;;17.97;51.15
66857;BME280;53766;50.280;19.160;2024-03-25T10:25:29;97228.31;;;17.97;51.10
66857;BME280;53766;50.280;19.160;2024-03-25T10:28:00;97228.09;;;17.99;51.07
66857;BME280;53766;50.280;19.160;2024-03-25T10:30:28;97224.13;;;18.01;50.94
66857;BME280;53766;50.280;19.160;2024-03-25T10:33:03;97221.47;;;18.01;51.06
66857;BME280;53766;50.280;19.160;2024-03-25T10:35:33;97222.06;;;18.03;50.90
66857;BME280;53766;50.280;19.160;2024-03-25T10:38:10;97219.41;;;18.03;50.86
66857;BME280;53766;50.280;19.160;2024-03-25T10:40:38;97223.22;;;18.07;50.85
66857;BME280;53766;50.280;19.160;2024-03-25T10:45:37;97215.81;;;18.09;50.66
66857;BME280;53766;50.280;19.160;2024-03-25T10:48:12;97224.34;;;18.12;50.73
66857;BME280;53766;50.280;19.160;2024-03-25T10:50:43;97216.94;;;18.14;50.68
66857;BME280;53766;50.280;19.160;2024-03-25T10:53:14;97207.91;;;18.15;50.77
66857;BME280;53766;50.280;19.160;2024-03-25T10:55:48;97215.34;;;18.13;50.68
66857;BME280;53766;50.280;19.160;2024-03-25T10:58:17;97224.13;;;18.13;50.85
66857;BME280;53766;50.280;19.160;2024-03-25T11:00:44;97230.75;;;18.11;50.88
66857;BME280;53766;50.280;19.160;2024-03-25T11:03:12;97224.81;;;18.08;50.98
66857;BME280;53766;50.280;19.160;2024-03-25T11:05:39;97240.81;;;18.08;50.86
66857;BME280;53766;50.280;19.160;2024-03-25T11:08:13;97239.22;;;18.07;50.93
66857;BME280;53766;50.280;19.160;2024-03-25T11:10:41;97253.09;;;18.09;50.88
66857;BME280;53766;50.280;19.160;2024-03-25T11:13:11;97242.47;;;18.09;50.66
66857;BME280;53766;50.280;19.160;2024-03-25T11:15:43;97241.41;;;18.11;50.70
66857;BME280;53766;50.280;19.160;2024-03-25T11:18:18;97242.47;;;18.09;50.69
66857;BME280;53766;50.280;19.160;2024-03-25T11:20:45;97272.78;;;18.08;50.83
66857;BME280;53766;50.280;19.160;2024-03-25T11:23:13;97296.19;;;18.06;50.85
66857;BME280;53766;50.280;19.160;2024-03-25T11:25:41;97297.47;;;18.04;50.82
66857;BME280;53766;50.280;19.160;2024-03-25T11:28:09;97289.09;;;18.00;50.78
66857;BME280;53766;50.280;19.160;2024-03-25T11:30:38;97281.09;;;18.00;50.83
66857;BME280;53766;50.280;19.160;2024-03-25T11:33:07;97271.50;;;17.99;50.79
66857;BME280;53766;50.280;19.160;2024-03-25T11:35:37;97262.72;;;17.99;50.82
66857;BME280;53766;50.280;19.160;2024-03-25T11:38:04;97262.47;;;18.00;50.67
66857;BME280;53766;50.280;19.160;2024-03-25T11:40:31;97260.63;;;18.01;50.77
66857;BME280;53766;50.280;19.160;2024-03-25T11:42:58;97252.84;;;17.99;50.85
66857;BME280;53766;50.280;19.160;2024-03-25T11:45:24;97243.94;;;18.05;50.71
66857;BME280;53766;50.280;19.160;2024-03-25T11:47:51;97241.03;;;18.07;50.69
66857;BME280;53766;50.280;19.160;2024-03-25T11:50:19;97244.88;;;18.11;50.60
66857;BME280;53766;50.280;19.160;2024-03-25T11:52:46;97248.34;;;18.12;50.40
66857;BME280;53766;50.280;19.160;2024-03-25T11:55:17;97242.19;;;18.11;50.54
66857;BME280;53766;50.280;19.160;2024-03-25T11:57:43;97241.41;;;18.11;50.57
66857;BME280;53766;50.280;19.160;2024-03-25T12:00:10;97231.78;;;18.09;50.71
66857;BME280;53766;50.280;19.160;2024-03-25T12:02:44;97233.41;;;18.11;50.63
66857;BME280;53766;50.280;19.160;2024-03-25T12:05:11;97236.28;;;18.09;50.72
66857;BME280;53766;50.280;19.160;2024-03-25T12:07:38;97233.03;;;18.07;50.69
66857;BME280;53766;50.280;19.160;2024-03-25T12:10:05;97240.00;;;18.08;50.85
66857;BME280;53766;50.280;19.160;2024-03-25T12:12:50;97239.78;;;18.09;50.81
66857;BME280;53766;50.280;19.160;2024-03-25T12:15:19;97232.25;;;18.06;50.71
66857;BME280;53766;50.280;19.160;2024-03-25T12:17:46;97241.28;;;18.05;50.70
66857;BME280;53766;50.280;19.160;2024-03-25T12:20:13;97263.84;;;18.03;50.80
66857;BME280;53766;50.280;19.160;2024-03-25T12:22:40;97267.56;;;18.02;50.89
66857;BME280;53766;50.280;19.160;2024-03-25T12:25:07;97266.75;;;18.01;50.73
66857;BME280;53766;50.280;19.160;2024-03-25T12:27:39;97283.78;;;18.00;50.71
66857;BME280;53766;50.280;19.160;2024-03-25T12:30:08;97274.16;;;17.99;50.76
66857;BME280;53766;50.280;19.160;2024-03-25T12:32:37;97286.69;;;17.99;50.88
66857;BME280;53766;50.280;19.160;2024-03-25T12:35:15;97283.19;;;17.98;50.79
66857;BME280;53766;50.280;19.160;2024-03-25T12:37:46;97278.91;;;17.97;50.91
66857;BME280;53766;50.280;19.160;2024-03-25T12:40:25;97280.53;;;17.98;50.88
66857;BME280;53766;50.280;19.160;2024-03-25T12:42:53;97277.63;;;18.00;50.84
66857;BME280;53766;50.280;19.160;2024-03-25T12:45:20;97269.66;;;18.00;50.99
66857;BME280;53766;50.280;19.160;2024-03-25T12:47:47;97268.38;;;18.02;50.86
66857;BME280;53766;50.280;19.160;2024-03-25T12:50:14;97260.97;;;18.04;50.88
66857;BME280;53766;50.280;19.160;2024-03-25T12:52:41;97269.53;;;18.06;50.88
66857;BME280;53766;50.280;19.160;2024-03-25T12:55:08;97270.13;;;18.08;50.85